createdAt,value
2022-10-22T00:03:05.040Z,9.48
2022-10-22T00:07:58.237Z,8.90
2022-10-22T00:12:51.310Z,13.35
2022-10-22T00:17:45.797Z,9.95
2022-10-22T00:22:39.483Z,10.48
2022-10-22T00:27:32.607Z,11.57
2022-10-22T00:32:25.749Z,10.65
2022-10-22T00:37:20.284Z,12.40
2022-10-22T00:42:24.406Z,17.08
2022-10-22T00:47:19.020Z,11.27
2022-10-22T00:52:13.008Z,15.27
2022-10-22T00:57:07.640Z,14.38
2022-10-22T01:02:00.923Z,16.13
2022-10-22T01:06:54.011Z,17.58
2022-10-22T01:12:00.394Z,14.68
2022-10-22T01:17:01.691Z,14.05
2022-10-22T01:22:00.087Z,16.80
2022-10-22T01:27:12.360Z,17.17
2022-10-22T01:32:12.751Z,17.40
2022-10-22T01:37:06.041Z,15.18
2022-10-22T01:41:59.641Z,14.07
2022-10-22T01:46:59.045Z,13.05
2022-10-22T01:52:07.212Z,13.45
2022-10-22T01:57:09.605Z,9.88
2022-10-22T02:02:14.197Z,11.00
2022-10-22T02:07:13.162Z,8.30
2022-10-22T02:12:09.672Z,8.45
2022-10-22T02:17:03.306Z,9.82
2022-10-22T02:21:56.745Z,10.77
2022-10-22T02:26:56.140Z,9.32
2022-10-22T02:31:52.230Z,10.37
2022-10-22T02:36:50.333Z,12.73
2022-10-22T02:41:44.175Z,10.87
2022-10-22T02:46:39.031Z,10.30
2022-10-22T02:51:32.202Z,10.73
2022-10-22T02:56:25.331Z,10.27
2022-10-22T03:01:18.593Z,11.03
2022-10-22T03:06:13.307Z,12.50
2022-10-22T03:11:06.682Z,11.57
2022-10-22T03:15:59.809Z,13.40
2022-10-22T03:21:03.169Z,10.93
2022-10-22T03:30:55.690Z,8.90
2022-10-22T03:35:49.646Z,9.80
2022-10-22T03:40:45.518Z,10.37
2022-10-22T03:45:40.197Z,10.63
2022-10-22T03:50:33.487Z,11.63
2022-10-22T03:55:26.845Z,8.80
2022-10-22T04:00:20.331Z,10.67
2022-10-22T04:10:13.032Z,12.20
2022-10-22T04:15:07.255Z,10.53
2022-10-22T04:20:00.350Z,10.00
2022-10-22T04:24:54.921Z,13.07
2022-10-22T04:29:48.155Z,12.67
2022-10-22T04:34:41.383Z,11.43
2022-10-22T04:39:34.517Z,10.77
2022-10-22T04:44:28.962Z,11.50
2022-10-22T04:49:22.133Z,13.90
2022-10-22T04:54:15.359Z,15.50
2022-10-22T04:59:10.189Z,16.27
2022-10-22T05:04:06.021Z,12.97
2022-10-22T05:09:01.657Z,19.90
2022-10-22T05:13:56.464Z,14.27
2022-10-22T05:18:49.788Z,14.73
2022-10-22T05:23:45.302Z,12.90
2022-10-22T05:28:38.653Z,15.20
2022-10-22T05:33:33.266Z,17.83
2022-10-22T05:38:26.762Z,18.27
2022-10-22T05:43:21.228Z,23.48
2022-10-22T05:48:14.326Z,14.93
2022-10-22T05:53:07.480Z,18.20
2022-10-22T05:58:00.612Z,14.52
2022-10-22T06:02:55.192Z,16.77
2022-10-22T06:07:48.736Z,13.32
2022-10-22T06:12:42.186Z,22.73
2022-10-22T06:17:35.507Z,17.23
2022-10-22T06:22:30.013Z,16.75
2022-10-22T06:27:23.107Z,13.27
2022-10-22T06:32:16.231Z,18.83
2022-10-22T06:37:11.259Z,13.05
2022-10-22T06:42:05.949Z,15.15
2022-10-22T06:47:00.732Z,7.25
2022-10-22T06:51:54.929Z,10.68
2022-10-22T06:56:48.374Z,7.80
2022-10-22T07:01:43.476Z,11.38
2022-10-22T07:06:36.540Z,8.07
2022-10-22T07:11:31.176Z,8.80
2022-10-22T07:16:28.140Z,9.63
2022-10-22T07:21:26.818Z,9.80
2022-10-22T07:26:21.367Z,7.53
2022-10-22T07:31:18.893Z,7.50
2022-10-22T07:36:17.860Z,14.73
2022-10-22T07:41:12.877Z,34.40
2022-10-22T07:46:06.846Z,10.85
2022-10-22T07:51:00.028Z,18.48
2022-10-22T07:55:53.463Z,17.60
2022-10-22T08:00:48.681Z,9.88
2022-10-22T08:05:44.067Z,9.93
2022-10-22T08:10:37.329Z,16.42
2022-10-22T08:15:31.310Z,13.52
2022-10-22T08:20:25.957Z,9.43
2022-10-22T08:25:21.587Z,10.25
2022-10-22T08:30:15.296Z,9.32
2022-10-22T08:35:10.386Z,7.38
2022-10-22T08:40:07.964Z,7.95
2022-10-22T08:45:11.465Z,10.18
2022-10-22T08:50:17.742Z,11.30
2022-10-22T08:55:15.548Z,8.63
2022-10-22T09:00:14.996Z,11.60
2022-10-22T09:05:22.767Z,9.10
2022-10-22T09:10:18.399Z,8.50
2022-10-22T09:15:15.775Z,11.80
2022-10-22T09:20:18.340Z,15.38
2022-10-22T09:25:22.099Z,9.05
2022-10-22T09:30:18.692Z,9.02
2022-10-22T09:35:19.191Z,11.38
2022-10-22T09:40:16.114Z,11.32
2022-10-22T09:45:20.271Z,11.90
2022-10-22T09:50:28.418Z,7.97
2022-10-22T09:55:21.565Z,10.73
2022-10-22T10:00:21.209Z,12.40
2022-10-22T10:05:20.618Z,9.80
2022-10-22T10:10:35.132Z,10.93
2022-10-22T10:15:40.349Z,10.35
2022-10-22T10:20:43.023Z,12.93
2022-10-22T10:25:49.305Z,12.55
2022-10-22T10:30:52.914Z,12.30
2022-10-22T10:35:55.508Z,11.45
2022-10-22T10:40:52.622Z,13.63
2022-10-22T10:46:00.507Z,12.57
2022-10-22T10:51:07.726Z,9.50
2022-10-22T10:56:07.439Z,10.13
2022-10-22T11:01:11.370Z,8.93
2022-10-22T11:06:08.785Z,9.00
2022-10-22T11:11:07.958Z,8.85
2022-10-22T11:16:11.781Z,11.50
2022-10-22T11:21:24.120Z,9.90
2022-10-22T11:26:26.592Z,10.48
2022-10-22T11:31:25.085Z,10.30
2022-10-22T11:36:23.163Z,8.52
2022-10-22T11:41:20.258Z,11.80
2022-10-22T11:46:31.293Z,9.50
2022-10-22T11:51:36.095Z,8.20
2022-10-22T11:56:38.849Z,9.45
2022-10-22T12:01:42.984Z,11.63
2022-10-22T12:06:54.864Z,11.55
2022-10-22T12:11:51.353Z,10.80
2022-10-22T12:16:56.289Z,8.13
2022-10-22T12:21:57.453Z,9.23
2022-10-22T12:26:52.785Z,10.63
2022-10-22T12:31:48.595Z,11.02
2022-10-22T12:36:41.821Z,10.68
2022-10-22T12:41:36.527Z,12.30
2022-10-22T12:46:33.238Z,12.30
2022-10-22T12:51:28.745Z,8.40
2022-10-22T12:56:25.311Z,8.05
2022-10-22T13:01:19.574Z,8.82
2022-10-22T13:06:14.671Z,9.20
2022-10-22T13:11:12.476Z,7.75
2022-10-22T13:16:30.300Z,7.63
2022-10-22T13:21:27.591Z,8.68
2022-10-22T13:26:24.763Z,7.78
2022-10-22T13:31:20.534Z,8.43
2022-10-22T13:36:17.352Z,10.73
2022-10-22T13:41:22.653Z,9.57
2022-10-22T13:46:15.995Z,10.55
2022-10-22T13:51:16.326Z,10.52
2022-10-22T13:56:15.530Z,8.60
2022-10-22T14:01:20.687Z,11.27
2022-10-22T14:06:15.795Z,13.02
2022-10-22T14:11:12.467Z,13.18
2022-10-22T14:16:07.941Z,14.10
2022-10-22T14:21:07.474Z,16.80
2022-10-22T14:26:01.899Z,14.95
2022-10-22T14:30:55.876Z,16.63
2022-10-22T14:35:49.446Z,19.17
2022-10-22T14:40:44.918Z,15.00
2022-10-22T14:45:38.159Z,18.98
2022-10-22T14:50:31.367Z,21.58
2022-10-22T14:55:26.299Z,12.77
2022-10-22T15:00:22.094Z,13.63
2022-10-22T15:05:17.553Z,26.67
2022-10-22T15:10:11.712Z,17.85
2022-10-22T15:15:05.525Z,45.97
2022-10-22T15:20:04.094Z,36.55
2022-10-22T15:24:57.254Z,145.23
2022-10-22T15:29:50.449Z,110.00
2022-10-22T15:34:43.742Z,123.22
2022-10-22T15:39:44.073Z,89.40
2022-10-22T15:44:37.537Z,60.60
2022-10-22T15:49:30.853Z,29.48
2022-10-22T15:54:28.253Z,30.80
2022-10-22T15:59:23.161Z,36.03
2022-10-22T16:04:16.703Z,32.60
2022-10-22T16:09:12.049Z,28.73
2022-10-22T16:14:06.555Z,33.90
2022-10-22T16:19:01.596Z,29.63
2022-10-22T16:23:55.314Z,25.75
2022-10-22T16:28:49.591Z,30.90
2022-10-22T16:33:46.499Z,25.88
2022-10-22T16:38:44.706Z,26.85
2022-10-22T16:43:37.877Z,25.95
2022-10-22T16:48:32.034Z,23.27
2022-10-22T16:53:25.431Z,30.85
2022-10-22T16:58:20.079Z,86.38
2022-10-22T17:03:13.421Z,77.97
2022-10-22T17:08:06.826Z,92.07
2022-10-22T17:13:00.089Z,94.97
2022-10-22T17:17:54.661Z,96.93
2022-10-22T17:22:49.526Z,108.65
2022-10-22T17:27:43.795Z,109.43
2022-10-22T17:32:38.489Z,84.93
2022-10-22T17:37:33.217Z,66.72
2022-10-22T17:42:26.684Z,46.47
2022-10-22T17:47:19.978Z,39.97
2022-10-22T17:52:14.531Z,42.65
2022-10-22T17:57:09.338Z,63.92
2022-10-22T18:02:03.219Z,31.85
2022-10-22T18:06:57.124Z,37.53
2022-10-22T18:11:52.039Z,51.70
2022-10-22T18:16:47.159Z,50.40
2022-10-22T18:21:40.641Z,39.72
2022-10-22T18:26:33.789Z,37.95
2022-10-22T18:31:28.496Z,38.50
2022-10-22T18:36:24.711Z,34.28
2022-10-22T18:41:17.927Z,37.42
2022-10-22T18:46:11.339Z,32.38
2022-10-22T18:51:07.251Z,35.38
2022-10-22T18:56:01.850Z,39.08
2022-10-22T19:00:55.095Z,34.47
2022-10-22T19:05:50.479Z,35.70
2022-10-22T19:10:44.166Z,32.10
2022-10-22T19:15:38.775Z,29.70
2022-10-22T19:20:32.090Z,25.80
2022-10-22T19:25:25.588Z,24.85
2022-10-22T19:30:20.401Z,32.83
2022-10-22T19:35:14.890Z,44.10
2022-10-22T19:40:09.768Z,30.88
2022-10-22T19:45:03.158Z,29.15
2022-10-22T19:49:56.270Z,29.98
2022-10-22T19:54:51.195Z,27.23
2022-10-22T19:59:44.603Z,32.03
2022-10-22T20:04:37.800Z,36.05
2022-10-22T20:09:31.008Z,33.42
2022-10-22T20:14:25.618Z,38.17
2022-10-22T20:19:19.203Z,36.50
2022-10-22T20:24:12.783Z,34.00
2022-10-22T20:29:05.947Z,27.27
2022-10-22T20:34:02.280Z,26.95
2022-10-22T20:39:00.650Z,32.65
2022-10-22T20:43:53.917Z,25.55
2022-10-22T20:48:47.319Z,29.50
2022-10-22T20:53:41.817Z,25.30
2022-10-22T20:58:35.029Z,26.17
2022-10-22T21:03:28.348Z,27.80
2022-10-22T21:08:24.703Z,25.38
2022-10-22T21:13:19.620Z,34.25
2022-10-22T21:18:13.854Z,30.45
2022-10-22T21:23:07.214Z,23.17
2022-10-22T21:28:00.474Z,21.13
2022-10-22T21:32:56.913Z,22.27
2022-10-22T21:37:50.127Z,21.38
2022-10-22T21:42:43.807Z,24.67
2022-10-22T21:47:37.023Z,28.50
2022-10-22T21:52:31.557Z,28.23
2022-10-22T21:57:24.653Z,40.17
2022-10-22T22:02:17.770Z,28.55
2022-10-22T22:07:10.893Z,21.30
2022-10-22T22:12:07.744Z,20.30
2022-10-22T22:17:00.853Z,23.65
2022-10-22T22:21:55.940Z,22.30
2022-10-22T22:26:49.443Z,19.77
2022-10-22T22:31:46.030Z,22.70
2022-10-22T22:36:41.694Z,28.60
2022-10-22T22:41:34.915Z,24.80
2022-10-22T22:46:28.141Z,24.67
2022-10-22T22:51:22.792Z,28.02
2022-10-22T22:56:19.197Z,22.88
2022-10-22T23:01:16.009Z,26.88
2022-10-22T23:06:09.930Z,22.20
2022-10-22T23:11:06.505Z,26.60
2022-10-22T23:15:59.590Z,44.28
2022-10-22T23:20:53.464Z,39.38
2022-10-22T23:25:49.051Z,28.58
2022-10-22T23:30:45.650Z,23.52
2022-10-22T23:35:41.611Z,24.10
2022-10-22T23:40:34.766Z,25.60
2022-10-22T23:45:28.004Z,32.00
2022-10-22T23:50:22.508Z,25.67
2022-10-22T23:55:15.813Z,21.23
